sensor_id;sensor_type;location;lat;lon;timestamp;P1;durP1;ratioP1;P2;durP2;ratioP2
23410;SDS011;11878;51.774;7.220;2023-07-29T00:12:08;2.37;;;1.40;;
23410;SDS011;11878;51.774;7.220;2023-07-29T00:15:11;3.80;;;1.50;;
23410;SDS011;11878;51.774;7.220;2023-07-29T00:25:28;3.20;;;1.60;;
23410;SDS011;11878;51.774;7.220;2023-07-29T00:28:30;2.70;;;1.53;;
23410;SDS011;11878;51.774;7.220;2023-07-29T00:31:33;3.53;;;2.10;;
23410;SDS011;11878;51.774;7.220;2023-07-29T00:34:35;6.30;;;1.83;;
23410;SDS011;11878;51.774;7.220;2023-07-29T00:37:37;2.80;;;1.50;;
23410;SDS011;11878;51.774;7.220;2023-07-29T00:40:39;3.57;;;1.80;;
23410;SDS011;11878;51.774;7.220;2023-07-29T00:43:42;3.93;;;1.70;;
23410;SDS011;11878;51.774;7.220;2023-07-29T00:46:44;3.77;;;2.00;;
23410;SDS011;11878;51.774;7.220;2023-07-29T00:49:47;4.07;;;2.10;;
23410;SDS011;11878;51.774;7.220;2023-07-29T00:52:49;4.73;;;2.60;;
23410;SDS011;11878;51.774;7.220;2023-07-29T00:55:51;6.70;;;3.07;;
23410;SDS011;11878;51.774;7.220;2023-07-29T00:58:53;3.10;;;2.10;;
23410;SDS011;11878;51.774;7.220;2023-07-29T01:02:01;2.97;;;2.10;;
23410;SDS011;11878;51.774;7.220;2023-07-29T01:05:05;5.17;;;2.57;;
23410;SDS011;11878;51.774;7.220;2023-07-29T01:08:10;4.80;;;2.23;;
23410;SDS011;11878;51.774;7.220;2023-07-29T01:11:45;4.10;;;2.40;;
23410;SDS011;11878;51.774;7.220;2023-07-29T01:14:54;4.10;;;2.40;;
23410;SDS011;11878;51.774;7.220;2023-07-29T01:18:07;6.67;;;2.20;;
23410;SDS011;11878;51.774;7.220;2023-07-29T01:21:12;4.33;;;2.50;;
23410;SDS011;11878;51.774;7.220;2023-07-29T01:24:15;5.47;;;2.70;;
23410;SDS011;11878;51.774;7.220;2023-07-29T01:27:17;3.80;;;2.50;;
23410;SDS011;11878;51.774;7.220;2023-07-29T01:30:19;6.00;;;2.30;;
23410;SDS011;11878;51.774;7.220;2023-07-29T01:33:26;4.20;;;2.07;;
23410;SDS011;11878;51.774;7.220;2023-07-29T01:36:36;5.87;;;2.07;;
23410;SDS011;11878;51.774;7.220;2023-07-29T01:39:41;3.73;;;2.20;;
23410;SDS011;11878;51.774;7.220;2023-07-29T01:42:47;4.03;;;2.10;;
23410;SDS011;11878;51.774;7.220;2023-07-29T01:45:49;5.80;;;1.97;;
23410;SDS011;11878;51.774;7.220;2023-07-29T01:48:51;4.53;;;2.30;;
23410;SDS011;11878;51.774;7.220;2023-07-29T01:51:53;3.80;;;2.27;;
23410;SDS011;11878;51.774;7.220;2023-07-29T01:54:55;7.00;;;2.60;;
23410;SDS011;11878;51.774;7.220;2023-07-29T01:57:56;3.53;;;2.10;;
23410;SDS011;11878;51.774;7.220;2023-07-29T02:01:14;4.00;;;2.53;;
23410;SDS011;11878;51.774;7.220;2023-07-29T02:04:16;3.60;;;2.13;;
23410;SDS011;11878;51.774;7.220;2023-07-29T02:07:18;3.50;;;2.37;;
23410;SDS011;11878;51.774;7.220;2023-07-29T02:10:20;5.90;;;2.20;;
23410;SDS011;11878;51.774;7.220;2023-07-29T02:13:22;7.17;;;2.60;;
23410;SDS011;11878;51.774;7.220;2023-07-29T02:16:27;4.00;;;2.37;;
23410;SDS011;11878;51.774;7.220;2023-07-29T02:19:32;4.93;;;2.17;;
23410;SDS011;11878;51.774;7.220;2023-07-29T02:22:34;5.07;;;2.77;;
23410;SDS011;11878;51.774;7.220;2023-07-29T02:25:42;4.10;;;2.20;;
23410;SDS011;11878;51.774;7.220;2023-07-29T02:28:54;4.20;;;2.20;;
23410;SDS011;11878;51.774;7.220;2023-07-29T02:31:56;5.03;;;2.40;;
23410;SDS011;11878;51.774;7.220;2023-07-29T02:34:58;3.30;;;2.30;;
23410;SDS011;11878;51.774;7.220;2023-07-29T02:38:01;4.53;;;2.30;;
23410;SDS011;11878;51.774;7.220;2023-07-29T02:41:29;6.23;;;2.60;;
23410;SDS011;11878;51.774;7.220;2023-07-29T02:44:39;3.47;;;2.30;;
23410;SDS011;11878;51.774;7.220;2023-07-29T02:47:42;4.00;;;2.37;;
23410;SDS011;11878;51.774;7.220;2023-07-29T02:50:44;5.07;;;2.53;;
23410;SDS011;11878;51.774;7.220;2023-07-29T02:57:39;5.43;;;2.90;;
23410;SDS011;11878;51.774;7.220;2023-07-29T03:00:41;7.13;;;2.43;;
23410;SDS011;11878;51.774;7.220;2023-07-29T03:03:44;5.80;;;3.10;;
23410;SDS011;11878;51.774;7.220;2023-07-29T03:06:46;5.93;;;3.07;;
23410;SDS011;11878;51.774;7.220;2023-07-29T03:09:49;4.80;;;3.20;;
23410;SDS011;11878;51.774;7.220;2023-07-29T03:12:53;5.70;;;3.10;;
23410;SDS011;11878;51.774;7.220;2023-07-29T03:16:09;4.67;;;2.73;;
23410;SDS011;11878;51.774;7.220;2023-07-29T03:19:13;3.97;;;2.23;;
23410;SDS011;11878;51.774;7.220;2023-07-29T03:22:16;6.10;;;3.00;;
23410;SDS011;11878;51.774;7.220;2023-07-29T03:25:18;5.27;;;2.60;;
23410;SDS011;11878;51.774;7.220;2023-07-29T03:28:20;4.10;;;2.27;;
23410;SDS011;11878;51.774;7.220;2023-07-29T03:31:22;5.00;;;2.40;;
23410;SDS011;11878;51.774;7.220;2023-07-29T03:34:24;4.27;;;2.33;;
23410;SDS011;11878;51.774;7.220;2023-07-29T03:37:28;6.10;;;2.93;;
23410;SDS011;11878;51.774;7.220;2023-07-29T03:40:47;4.03;;;2.30;;
23410;SDS011;11878;51.774;7.220;2023-07-29T03:43:49;5.10;;;2.53;;
23410;SDS011;11878;51.774;7.220;2023-07-29T03:46:51;5.00;;;2.53;;
23410;SDS011;11878;51.774;7.220;2023-07-29T03:49:52;5.27;;;2.93;;
23410;SDS011;11878;51.774;7.220;2023-07-29T03:56:30;15.83;;;3.50;;
23410;SDS011;11878;51.774;7.220;2023-07-29T03:59:37;3.53;;;2.50;;
23410;SDS011;11878;51.774;7.220;2023-07-29T04:02:41;4.43;;;2.40;;
23410;SDS011;11878;51.774;7.220;2023-07-29T04:05:44;6.47;;;2.70;;
23410;SDS011;11878;51.774;7.220;2023-07-29T04:08:55;4.23;;;2.80;;
23410;SDS011;11878;51.774;7.220;2023-07-29T04:19:13;8.43;;;3.47;;
23410;SDS011;11878;51.774;7.220;2023-07-29T04:22:16;8.30;;;4.03;;
23410;SDS011;11878;51.774;7.220;2023-07-29T04:25:22;11.03;;;4.43;;
23410;SDS011;11878;51.774;7.220;2023-07-29T04:28:25;7.87;;;4.73;;
23410;SDS011;11878;51.774;7.220;2023-07-29T04:31:27;8.00;;;4.57;;
23410;SDS011;11878;51.774;7.220;2023-07-29T04:34:29;9.47;;;5.47;;
23410;SDS011;11878;51.774;7.220;2023-07-29T04:37:31;12.40;;;7.40;;
23410;SDS011;11878;51.774;7.220;2023-07-29T04:40:34;9.37;;;6.83;;
23410;SDS011;11878;51.774;7.220;2023-07-29T04:43:36;9.33;;;6.63;;
23410;SDS011;11878;51.774;7.220;2023-07-29T04:46:38;10.13;;;6.43;;
23410;SDS011;11878;51.774;7.220;2023-07-29T04:49:40;11.17;;;5.37;;
23410;SDS011;11878;51.774;7.220;2023-07-29T04:52:42;6.93;;;5.47;;
23410;SDS011;11878;51.774;7.220;2023-07-29T04:55:47;8.73;;;5.23;;
23410;SDS011;11878;51.774;7.220;2023-07-29T04:58:57;5.83;;;4.37;;
23410;SDS011;11878;51.774;7.220;2023-07-29T05:02:02;6.30;;;4.10;;
23410;SDS011;11878;51.774;7.220;2023-07-29T05:05:04;7.77;;;4.17;;
23410;SDS011;11878;51.774;7.220;2023-07-29T05:08:07;6.40;;;4.03;;
23410;SDS011;11878;51.774;7.220;2023-07-29T05:11:12;7.07;;;4.07;;
23410;SDS011;11878;51.774;7.220;2023-07-29T05:14:14;3.93;;;2.97;;
23410;SDS011;11878;51.774;7.220;2023-07-29T05:17:18;7.03;;;4.17;;
23410;SDS011;11878;51.774;7.220;2023-07-29T05:20:20;8.17;;;4.60;;
23410;SDS011;11878;51.774;7.220;2023-07-29T05:23:25;8.23;;;4.87;;
23410;SDS011;11878;51.774;7.220;2023-07-29T05:26:27;6.43;;;4.67;;
23410;SDS011;11878;51.774;7.220;2023-07-29T05:29:29;7.97;;;5.03;;
23410;SDS011;11878;51.774;7.220;2023-07-29T05:32:32;6.80;;;5.47;;
23410;SDS011;11878;51.774;7.220;2023-07-29T05:35:34;12.53;;;5.97;;
23410;SDS011;11878;51.774;7.220;2023-07-29T05:38:37;6.80;;;5.17;;
23410;SDS011;11878;51.774;7.220;2023-07-29T05:41:39;7.63;;;5.60;;
23410;SDS011;11878;51.774;7.220;2023-07-29T05:44:42;10.57;;;6.87;;
23410;SDS011;11878;51.774;7.220;2023-07-29T05:47:44;10.37;;;6.43;;
23410;SDS011;11878;51.774;7.220;2023-07-29T05:50:46;10.60;;;6.30;;
23410;SDS011;11878;51.774;7.220;2023-07-29T05:53:48;8.20;;;6.33;;
23410;SDS011;11878;51.774;7.220;2023-07-29T05:56:50;10.97;;;7.00;;
23410;SDS011;11878;51.774;7.220;2023-07-29T05:59:52;9.47;;;7.13;;
23410;SDS011;11878;51.774;7.220;2023-07-29T06:02:55;8.63;;;6.47;;
23410;SDS011;11878;51.774;7.220;2023-07-29T06:05:57;11.43;;;6.10;;
23410;SDS011;11878;51.774;7.220;2023-07-29T06:09:02;9.20;;;5.27;;
23410;SDS011;11878;51.774;7.220;2023-07-29T06:12:04;7.73;;;5.43;;
23410;SDS011;11878;51.774;7.220;2023-07-29T06:15:07;8.70;;;6.03;;
23410;SDS011;11878;51.774;7.220;2023-07-29T06:18:09;9.30;;;5.63;;
23410;SDS011;11878;51.774;7.220;2023-07-29T06:21:15;6.37;;;4.50;;
23410;SDS011;11878;51.774;7.220;2023-07-29T06:24:19;9.47;;;4.43;;
23410;SDS011;11878;51.774;7.220;2023-07-29T06:27:21;5.83;;;3.30;;
23410;SDS011;11878;51.774;7.220;2023-07-29T06:30:23;4.27;;;3.13;;
23410;SDS011;11878;51.774;7.220;2023-07-29T06:33:43;7.47;;;3.43;;
23410;SDS011;11878;51.774;7.220;2023-07-29T06:36:48;5.57;;;3.63;;
23410;SDS011;11878;51.774;7.220;2023-07-29T06:39:53;5.20;;;3.93;;
23410;SDS011;11878;51.774;7.220;2023-07-29T06:43:03;8.03;;;4.27;;
23410;SDS011;11878;51.774;7.220;2023-07-29T06:46:08;5.43;;;4.20;;
23410;SDS011;11878;51.774;7.220;2023-07-29T06:49:10;5.60;;;3.70;;
23410;SDS011;11878;51.774;7.220;2023-07-29T06:52:12;4.90;;;3.53;;
23410;SDS011;11878;51.774;7.220;2023-07-29T06:55:14;7.60;;;3.70;;
23410;SDS011;11878;51.774;7.220;2023-07-29T06:58:17;5.03;;;2.77;;
23410;SDS011;11878;51.774;7.220;2023-07-29T07:01:19;4.80;;;3.10;;
23410;SDS011;11878;51.774;7.220;2023-07-29T07:04:21;6.57;;;2.90;;
23410;SDS011;11878;51.774;7.220;2023-07-29T07:07:34;4.37;;;2.90;;
23410;SDS011;11878;51.774;7.220;2023-07-29T07:10:56;6.37;;;2.70;;
23410;SDS011;11878;51.774;7.220;2023-07-29T07:13:58;4.50;;;2.33;;
23410;SDS011;11878;51.774;7.220;2023-07-29T07:17:01;3.63;;;2.30;;
23410;SDS011;11878;51.774;7.220;2023-07-29T07:20:03;4.33;;;2.17;;
23410;SDS011;11878;51.774;7.220;2023-07-29T07:23:07;4.70;;;2.20;;
23410;SDS011;11878;51.774;7.220;2023-07-29T07:26:12;2.70;;;1.60;;
23410;SDS011;11878;51.774;7.220;2023-07-29T07:29:14;3.10;;;1.70;;
23410;SDS011;11878;51.774;7.220;2023-07-29T07:32:18;5.23;;;1.90;;
23410;SDS011;11878;51.774;7.220;2023-07-29T07:35:22;3.73;;;1.67;;
23410;SDS011;11878;51.774;7.220;2023-07-29T07:38:26;2.23;;;1.40;;
23410;SDS011;11878;51.774;7.220;2023-07-29T07:41:28;4.00;;;1.90;;
23410;SDS011;11878;51.774;7.220;2023-07-29T07:44:30;5.83;;;1.50;;
23410;SDS011;11878;51.774;7.220;2023-07-29T07:47:35;3.23;;;1.60;;
23410;SDS011;11878;51.774;7.220;2023-07-29T07:50:38;3.83;;;1.70;;
23410;SDS011;11878;51.774;7.220;2023-07-29T07:53:41;2.77;;;1.70;;
23410;SDS011;11878;51.774;7.220;2023-07-29T07:56:43;2.13;;;1.27;;
23410;SDS011;11878;51.774;7.220;2023-07-29T07:59:45;3.70;;;1.90;;
23410;SDS011;11878;51.774;7.220;2023-07-29T08:02:48;1.63;;;1.00;;
23410;SDS011;11878;51.774;7.220;2023-07-29T08:05:51;4.23;;;1.37;;
23410;SDS011;11878;51.774;7.220;2023-07-29T08:08:53;3.37;;;1.77;;
23410;SDS011;11878;51.774;7.220;2023-07-29T08:11:57;2.63;;;1.40;;
23410;SDS011;11878;51.774;7.220;2023-07-29T08:14:59;4.20;;;1.60;;
23410;SDS011;11878;51.774;7.220;2023-07-29T08:18:09;3.15;;;1.15;;
23410;SDS011;11878;51.774;7.220;2023-07-29T08:21:11;4.13;;;1.15;;
23410;SDS011;11878;51.774;7.220;2023-07-29T08:24:13;2.53;;;1.10;;
23410;SDS011;11878;51.774;7.220;2023-07-29T08:27:16;2.20;;;1.00;;
23410;SDS011;11878;51.774;7.220;2023-07-29T08:30:18;4.60;;;1.00;;
23410;SDS011;11878;51.774;7.220;2023-07-29T08:33:21;2.45;;;0.70;;
23410;SDS011;11878;51.774;7.220;2023-07-29T08:36:29;1.20;;;0.70;;
23410;SDS011;11878;51.774;7.220;2023-07-29T08:39:31;1.83;;;0.80;;
23410;SDS011;11878;51.774;7.220;2023-07-29T08:42:35;2.40;;;1.10;;
23410;SDS011;11878;51.774;7.220;2023-07-29T08:45:43;0.90;;;0.60;;
23410;SDS011;11878;51.774;7.220;2023-07-29T08:48:49;1.85;;;0.80;;
23410;SDS011;11878;51.774;7.220;2023-07-29T08:52:00;4.30;;;0.90;;
23410;SDS011;11878;51.774;7.220;2023-07-29T08:55:06;1.17;;;0.65;;
23410;SDS011;11878;51.774;7.220;2023-07-29T08:58:12;1.73;;;0.80;;
23410;SDS011;11878;51.774;7.220;2023-07-29T09:01:14;4.05;;;0.60;;
23410;SDS011;11878;51.774;7.220;2023-07-29T09:04:17;1.25;;;0.70;;
23410;SDS011;11878;51.774;7.220;2023-07-29T09:07:20;0.90;;;0.65;;
23410;SDS011;11878;51.774;7.220;2023-07-29T09:10:25;1.17;;;0.60;;
23410;SDS011;11878;51.774;7.220;2023-07-29T09:13:27;2.00;;;0.50;;
23410;SDS011;11878;51.774;7.220;2023-07-29T09:16:30;1.02;;;0.68;;
23410;SDS011;11878;51.774;7.220;2023-07-29T09:19:35;1.60;;;0.60;;
23410;SDS011;11878;51.774;7.220;2023-07-29T09:22:46;1.15;;;0.40;;
23410;SDS011;11878;51.774;7.220;2023-07-29T09:25:48;1.08;;;0.70;;
23410;SDS011;11878;51.774;7.220;2023-07-29T09:28:59;2.30;;;0.40;;
23410;SDS011;11878;51.774;7.220;2023-07-29T09:39:38;1.85;;;0.40;;
23410;SDS011;11878;51.774;7.220;2023-07-29T09:43:07;0.50;;;0.40;;
23410;SDS011;11878;51.774;7.220;2023-07-29T09:46:15;0.82;;;0.52;;
23410;SDS011;11878;51.774;7.220;2023-07-29T09:49:22;2.53;;;0.60;;
23410;SDS011;11878;51.774;7.220;2023-07-29T09:52:24;0.65;;;0.30;;
23410;SDS011;11878;51.774;7.220;2023-07-29T09:55:27;0.82;;;0.40;;
23410;SDS011;11878;51.774;7.220;2023-07-29T09:58:29;2.85;;;0.60;;
23410;SDS011;11878;51.774;7.220;2023-07-29T10:01:32;2.60;;;0.70;;
23410;SDS011;11878;51.774;7.220;2023-07-29T10:04:44;1.23;;;0.50;;
23410;SDS011;11878;51.774;7.220;2023-07-29T10:07:55;2.25;;;0.57;;
23410;SDS011;11878;51.774;7.220;2023-07-29T10:10:59;0.35;;;0.35;;
23410;SDS011;11878;51.774;7.220;2023-07-29T10:14:08;2.03;;;0.50;;
23410;SDS011;11878;51.774;7.220;2023-07-29T10:20:53;2.03;;;0.50;;
23410;SDS011;11878;51.774;7.220;2023-07-29T10:24:00;0.70;;;0.60;;
23410;SDS011;11878;51.774;7.220;2023-07-29T10:27:09;2.80;;;0.80;;
23410;SDS011;11878;51.774;7.220;2023-07-29T10:30:15;5.10;;;0.60;;
23410;SDS011;11878;51.774;7.220;2023-07-29T10:33:28;0.95;;;0.70;;
23410;SDS011;11878;51.774;7.220;2023-07-29T10:36:33;2.10;;;0.70;;
23410;SDS011;11878;51.774;7.220;2023-07-29T10:40:10;1.50;;;0.60;;
23410;SDS011;11878;51.774;7.220;2023-07-29T10:43:11;1.17;;;0.60;;
23410;SDS011;11878;51.774;7.220;2023-07-29T10:46:21;2.10;;;0.75;;
23410;SDS011;11878;51.774;7.220;2023-07-29T10:49:35;1.00;;;0.43;;
23410;SDS011;11878;51.774;7.220;2023-07-29T10:52:41;0.90;;;0.52;;
23410;SDS011;11878;51.774;7.220;2023-07-29T10:55:47;1.33;;;0.77;;
23410;SDS011;11878;51.774;7.220;2023-07-29T10:58:50;1.40;;;0.70;;
23410;SDS011;11878;51.774;7.220;2023-07-29T11:01:57;0.80;;;0.57;;
23410;SDS011;11878;51.774;7.220;2023-07-29T11:05:04;0.88;;;0.65;;
23410;SDS011;11878;51.774;7.220;2023-07-29T11:08:19;1.10;;;0.60;;
23410;SDS011;11878;51.774;7.220;2023-07-29T11:11:24;0.85;;;0.60;;
23410;SDS011;11878;51.774;7.220;2023-07-29T11:14:29;0.90;;;0.60;;
23410;SDS011;11878;51.774;7.220;2023-07-29T11:17:32;3.28;;;0.75;;
23410;SDS011;11878;51.774;7.220;2023-07-29T11:20:38;3.08;;;0.82;;
23410;SDS011;11878;51.774;7.220;2023-07-29T11:23:40;1.08;;;0.68;;
23410;SDS011;11878;51.774;7.220;2023-07-29T11:26:46;2.83;;;0.60;;
23410;SDS011;11878;51.774;7.220;2023-07-29T11:29:48;1.63;;;0.80;;
23410;SDS011;11878;51.774;7.220;2023-07-29T11:32:50;3.10;;;0.68;;
23410;SDS011;11878;51.774;7.220;2023-07-29T11:35:54;0.60;;;0.40;;
23410;SDS011;11878;51.774;7.220;2023-07-29T11:38:58;1.65;;;0.80;;
23410;SDS011;11878;51.774;7.220;2023-07-29T11:42:02;1.00;;;0.55;;
23410;SDS011;11878;51.774;7.220;2023-07-29T11:45:04;1.25;;;0.70;;
23410;SDS011;11878;51.774;7.220;2023-07-29T11:48:09;1.35;;;0.68;;
23410;SDS011;11878;51.774;7.220;2023-07-29T11:51:11;1.25;;;0.60;;
23410;SDS011;11878;51.774;7.220;2023-07-29T11:54:15;0.93;;;0.65;;
23410;SDS011;11878;51.774;7.220;2023-07-29T11:57:17;2.58;;;0.80;;
23410;SDS011;11878;51.774;7.220;2023-07-29T12:00:22;2.55;;;0.80;;
23410;SDS011;11878;51.774;7.220;2023-07-29T12:03:25;1.25;;;0.60;;
23410;SDS011;11878;51.774;7.220;2023-07-29T12:06:28;2.35;;;0.88;;
23410;SDS011;11878;51.774;7.220;2023-07-29T12:09:33;1.17;;;0.80;;
23410;SDS011;11878;51.774;7.220;2023-07-29T12:12:46;1.30;;;0.50;;
23410;SDS011;11878;51.774;7.220;2023-07-29T12:15:51;1.33;;;0.60;;
23410;SDS011;11878;51.774;7.220;2023-07-29T12:19:01;3.30;;;1.17;;
23410;SDS011;11878;51.774;7.220;2023-07-29T12:22:05;0.80;;;0.60;;
23410;SDS011;11878;51.774;7.220;2023-07-29T12:25:09;1.50;;;0.77;;
23410;SDS011;11878;51.774;7.220;2023-07-29T12:28:11;1.35;;;0.77;;
23410;SDS011;11878;51.774;7.220;2023-07-29T12:31:13;1.35;;;0.73;;
23410;SDS011;11878;51.774;7.220;2023-07-29T12:34:20;4.93;;;0.85;;
23410;SDS011;11878;51.774;7.220;2023-07-29T12:37:32;2.42;;;0.80;;
23410;SDS011;11878;51.774;7.220;2023-07-29T12:40:37;0.60;;;0.50;;
23410;SDS011;11878;51.774;7.220;2023-07-29T12:43:40;5.70;;;0.93;;
23410;SDS011;11878;51.774;7.220;2023-07-29T12:46:42;1.40;;;0.77;;
23410;SDS011;11878;51.774;7.220;2023-07-29T12:49:44;0.77;;;0.50;;
23410;SDS011;11878;51.774;7.220;2023-07-29T12:52:46;0.98;;;0.65;;
23410;SDS011;11878;51.774;7.220;2023-07-29T12:55:51;0.90;;;0.50;;
23410;SDS011;11878;51.774;7.220;2023-07-29T12:58:53;0.77;;;0.60;;
23410;SDS011;11878;51.774;7.220;2023-07-29T13:01:55;1.42;;;0.73;;
23410;SDS011;11878;51.774;7.220;2023-07-29T13:04:57;0.73;;;0.60;;
23410;SDS011;11878;51.774;7.220;2023-07-29T13:07:59;1.90;;;0.82;;
23410;SDS011;11878;51.774;7.220;2023-07-29T13:11:01;0.85;;;0.40;;
23410;SDS011;11878;51.774;7.220;2023-07-29T13:14:04;1.83;;;1.00;;
23410;SDS011;11878;51.774;7.220;2023-07-29T13:17:06;1.70;;;0.88;;
23410;SDS011;11878;51.774;7.220;2023-07-29T13:20:08;3.70;;;1.08;;
23410;SDS011;11878;51.774;7.220;2023-07-29T13:23:10;2.28;;;0.85;;
23410;SDS011;11878;51.774;7.220;2023-07-29T13:26:12;2.15;;;0.77;;
23410;SDS011;11878;51.774;7.220;2023-07-29T13:29:14;3.20;;;1.15;;
23410;SDS011;11878;51.774;7.220;2023-07-29T13:32:22;3.35;;;1.05;;
23410;SDS011;11878;51.774;7.220;2023-07-29T13:35:24;0.93;;;0.80;;
23410;SDS011;11878;51.774;7.220;2023-07-29T13:38:27;2.22;;;1.00;;
23410;SDS011;11878;51.774;7.220;2023-07-29T13:41:30;1.60;;;0.90;;
23410;SDS011;11878;51.774;7.220;2023-07-29T13:44:33;2.38;;;0.98;;
23410;SDS011;11878;51.774;7.220;2023-07-29T13:47:35;2.00;;;1.02;;
23410;SDS011;11878;51.774;7.220;2023-07-29T13:50:37;2.22;;;0.90;;
23410;SDS011;11878;51.774;7.220;2023-07-29T13:53:38;2.55;;;0.80;;
23410;SDS011;11878;51.774;7.220;2023-07-29T13:56:40;3.75;;;0.80;;
23410;SDS011;11878;51.774;7.220;2023-07-29T13:59:45;6.97;;;1.23;;
23410;SDS011;11878;51.774;7.220;2023-07-29T14:02:50;4.45;;;0.50;;
23410;SDS011;11878;51.774;7.220;2023-07-29T14:05:52;1.20;;;0.30;;
23410;SDS011;11878;51.774;7.220;2023-07-29T14:08:55;0.93;;;0.40;;
23410;SDS011;11878;51.774;7.220;2023-07-29T14:11:57;0.68;;;0.40;;
23410;SDS011;11878;51.774;7.220;2023-07-29T14:14:59;1.40;;;0.57;;
23410;SDS011;11878;51.774;7.220;2023-07-29T14:18:01;1.73;;;0.60;;
23410;SDS011;11878;51.774;7.220;2023-07-29T14:21:04;1.63;;;0.60;;
23410;SDS011;11878;51.774;7.220;2023-07-29T14:24:05;1.77;;;0.57;;
23410;SDS011;11878;51.774;7.220;2023-07-29T14:27:07;1.33;;;0.60;;
23410;SDS011;11878;51.774;7.220;2023-07-29T14:30:10;1.83;;;0.67;;
23410;SDS011;11878;51.774;7.220;2023-07-29T14:33:12;1.50;;;0.73;;
23410;SDS011;11878;51.774;7.220;2023-07-29T14:36:15;1.90;;;0.80;;
23410;SDS011;11878;51.774;7.220;2023-07-29T14:39:17;3.50;;;1.10;;
23410;SDS011;11878;51.774;7.220;2023-07-29T14:42:19;3.53;;;1.00;;
23410;SDS011;11878;51.774;7.220;2023-07-29T14:45:21;4.97;;;1.07;;
23410;SDS011;11878;51.774;7.220;2023-07-29T14:48:23;4.90;;;0.87;;
23410;SDS011;11878;51.774;7.220;2023-07-29T14:51:25;2.77;;;0.67;;
23410;SDS011;11878;51.774;7.220;2023-07-29T14:54:27;4.87;;;1.00;;
23410;SDS011;11878;51.774;7.220;2023-07-29T14:57:28;4.33;;;1.00;;
23410;SDS011;11878;51.774;7.220;2023-07-29T15:00:31;2.25;;;0.70;;
23410;SDS011;11878;51.774;7.220;2023-07-29T15:03:33;4.10;;;1.10;;
23410;SDS011;11878;51.774;7.220;2023-07-29T15:06:35;3.07;;;1.03;;
23410;SDS011;11878;51.774;7.220;2023-07-29T15:09:37;5.40;;;1.13;;
23410;SDS011;11878;51.774;7.220;2023-07-29T15:12:39;2.93;;;0.90;;
23410;SDS011;11878;51.774;7.220;2023-07-29T15:15:44;3.15;;;1.17;;
23410;SDS011;11878;51.774;7.220;2023-07-29T15:18:46;2.13;;;1.10;;
23410;SDS011;11878;51.774;7.220;2023-07-29T15:21:48;3.17;;;1.13;;
23410;SDS011;11878;51.774;7.220;2023-07-29T15:24:50;2.07;;;1.27;;
23410;SDS011;11878;51.774;7.220;2023-07-29T15:27:52;3.03;;;1.17;;
23410;SDS011;11878;51.774;7.220;2023-07-29T15:30:54;4.50;;;1.13;;
23410;SDS011;11878;51.774;7.220;2023-07-29T15:33:59;2.40;;;1.03;;
23410;SDS011;11878;51.774;7.220;2023-07-29T15:37:01;3.30;;;1.20;;
23410;SDS011;11878;51.774;7.220;2023-07-29T15:40:04;1.73;;;0.80;;
23410;SDS011;11878;51.774;7.220;2023-07-29T15:43:08;2.43;;;1.20;;
23410;SDS011;11878;51.774;7.220;2023-07-29T15:46:10;2.13;;;1.10;;
23410;SDS011;11878;51.774;7.220;2023-07-29T15:49:13;1.42;;;0.80;;
23410;SDS011;11878;51.774;7.220;2023-07-29T15:52:15;2.63;;;1.10;;
23410;SDS011;11878;51.774;7.220;2023-07-29T15:55:17;2.37;;;1.00;;
23410;SDS011;11878;51.774;7.220;2023-07-29T15:58:25;1.33;;;0.70;;
23410;SDS011;11878;51.774;7.220;2023-07-29T16:01:35;3.95;;;1.25;;
23410;SDS011;11878;51.774;7.220;2023-07-29T16:04:37;5.17;;;1.20;;
23410;SDS011;11878;51.774;7.220;2023-07-29T16:07:39;2.35;;;1.13;;
23410;SDS011;11878;51.774;7.220;2023-07-29T16:10:42;2.13;;;1.33;;
23410;SDS011;11878;51.774;7.220;2023-07-29T16:13:43;1.20;;;1.02;;
23410;SDS011;11878;51.774;7.220;2023-07-29T16:16:47;3.35;;;1.00;;
23410;SDS011;11878;51.774;7.220;2023-07-29T16:20:08;3.45;;;1.02;;
23410;SDS011;11878;51.774;7.220;2023-07-29T16:23:10;4.28;;;1.25;;
23410;SDS011;11878;51.774;7.220;2023-07-29T16:26:14;2.38;;;1.35;;
23410;SDS011;11878;51.774;7.220;2023-07-29T16:29:33;2.40;;;1.10;;
23410;SDS011;11878;51.774;7.220;2023-07-29T16:32:44;4.32;;;1.75;;
23410;SDS011;11878;51.774;7.220;2023-07-29T16:35:47;2.50;;;1.58;;
23410;SDS011;11878;51.774;7.220;2023-07-29T16:38:51;2.25;;;1.20;;
23410;SDS011;11878;51.774;7.220;2023-07-29T16:41:57;6.25;;;1.73;;
23410;SDS011;11878;51.774;7.220;2023-07-29T16:45:08;3.75;;;1.67;;
23410;SDS011;11878;51.774;7.220;2023-07-29T16:48:15;2.20;;;1.50;;
23410;SDS011;11878;51.774;7.220;2023-07-29T16:51:32;3.60;;;1.52;;
23410;SDS011;11878;51.774;7.220;2023-07-29T17:06:06;2.63;;;1.55;;
23410;SDS011;11878;51.774;7.220;2023-07-29T17:09:13;3.60;;;1.83;;
23410;SDS011;11878;51.774;7.220;2023-07-29T17:12:23;5.73;;;1.70;;
23410;SDS011;11878;51.774;7.220;2023-07-29T17:15:37;4.00;;;1.73;;
23410;SDS011;11878;51.774;7.220;2023-07-29T17:18:43;5.38;;;1.80;;
23410;SDS011;11878;51.774;7.220;2023-07-29T17:21:50;4.60;;;2.05;;
23410;SDS011;11878;51.774;7.220;2023-07-29T17:24:58;4.25;;;2.10;;
23410;SDS011;11878;51.774;7.220;2023-07-29T17:28:05;4.33;;;2.20;;
23410;SDS011;11878;51.774;7.220;2023-07-29T17:31:09;4.93;;;2.30;;
23410;SDS011;11878;51.774;7.220;2023-07-29T17:34:15;3.53;;;1.92;;
23410;SDS011;11878;51.774;7.220;2023-07-29T17:37:20;3.60;;;1.95;;
23410;SDS011;11878;51.774;7.220;2023-07-29T17:40:26;7.60;;;2.13;;
23410;SDS011;11878;51.774;7.220;2023-07-29T17:43:28;5.23;;;1.83;;
23410;SDS011;11878;51.774;7.220;2023-07-29T17:46:37;3.37;;;1.80;;
23410;SDS011;11878;51.774;7.220;2023-07-29T17:49:52;4.03;;;2.40;;
23410;SDS011;11878;51.774;7.220;2023-07-29T17:53:28;5.00;;;2.00;;
23410;SDS011;11878;51.774;7.220;2023-07-29T17:56:54;5.13;;;2.13;;
23410;SDS011;11878;51.774;7.220;2023-07-29T17:59:59;5.67;;;2.20;;
23410;SDS011;11878;51.774;7.220;2023-07-29T18:03:17;3.83;;;2.30;;
23410;SDS011;11878;51.774;7.220;2023-07-29T18:06:24;3.73;;;1.93;;
23410;SDS011;11878;51.774;7.220;2023-07-29T18:09:30;3.53;;;2.10;;
23410;SDS011;11878;51.774;7.220;2023-07-29T18:12:34;7.40;;;3.20;;
23410;SDS011;11878;51.774;7.220;2023-07-29T18:15:45;4.17;;;2.27;;
23410;SDS011;11878;51.774;7.220;2023-07-29T18:18:55;5.97;;;2.70;;
23410;SDS011;11878;51.774;7.220;2023-07-29T18:22:27;5.33;;;2.70;;
23410;SDS011;11878;51.774;7.220;2023-07-29T18:25:53;4.50;;;2.20;;
23410;SDS011;11878;51.774;7.220;2023-07-29T18:29:03;8.30;;;2.80;;
23410;SDS011;11878;51.774;7.220;2023-07-29T18:32:08;5.80;;;2.60;;
23410;SDS011;11878;51.774;7.220;2023-07-29T18:35:13;4.30;;;3.10;;
23410;SDS011;11878;51.774;7.220;2023-07-29T18:38:23;6.50;;;2.67;;
23410;SDS011;11878;51.774;7.220;2023-07-29T18:41:25;4.03;;;2.40;;
23410;SDS011;11878;51.774;7.220;2023-07-29T18:44:34;4.90;;;2.17;;
23410;SDS011;11878;51.774;7.220;2023-07-29T18:47:36;4.27;;;2.53;;
23410;SDS011;11878;51.774;7.220;2023-07-29T18:50:43;5.50;;;2.70;;
23410;SDS011;11878;51.774;7.220;2023-07-29T18:53:46;9.00;;;3.20;;
23410;SDS011;11878;51.774;7.220;2023-07-29T18:56:50;5.15;;;2.55;;
23410;SDS011;11878;51.774;7.220;2023-07-29T18:59:55;5.73;;;2.57;;
23410;SDS011;11878;51.774;7.220;2023-07-29T19:03:14;5.18;;;2.75;;
23410;SDS011;11878;51.774;7.220;2023-07-29T19:06:19;7.10;;;2.73;;
23410;SDS011;11878;51.774;7.220;2023-07-29T19:09:33;5.60;;;2.70;;
23410;SDS011;11878;51.774;7.220;2023-07-29T19:12:35;5.53;;;2.40;;
23410;SDS011;11878;51.774;7.220;2023-07-29T19:15:49;4.90;;;2.60;;
23410;SDS011;11878;51.774;7.220;2023-07-29T19:18:56;3.20;;;2.07;;
23410;SDS011;11878;51.774;7.220;2023-07-29T19:22:13;3.47;;;1.90;;
23410;SDS011;11878;51.774;7.220;2023-07-29T19:25:26;5.77;;;2.10;;
23410;SDS011;11878;51.774;7.220;2023-07-29T19:33:02;5.87;;;1.77;;
23410;SDS011;11878;51.774;7.220;2023-07-29T19:36:08;3.43;;;1.60;;